Maize, KS

12:26 PM CST on November 28, 2014 (GMT -0600)
Newton City County | Change Station
CLOSE
Current Station
Airport
Location: Newton,
Elevation: 1532 ft
Nearby Weather Stations

Elev 1532 ft 38.06 °N, 97.27 °W | Updated 11 minutes ago

Partly Cloudy
Partly Cloudy
55 °F
Feels Like 55 °F
N
22
Wind Variable Wind from SSW
Gusts 28 mph

Today
High -- | Low -- °F
--% Chance of Precip.
Yesterday
High -- | Low -- °F
Precip. -- in
7:23 AM 5:11 PM
Waxing Crescent, 42% visible
Pressure 29.87 in
Visibility 10.0 miles
Clouds Clear
Dew Point 30 °F
Humidity 38%
Rainfall 0.00 in
Snow Depth Not available.
UV 3 out of 12
Pollen .10 out of 12
Air Quality Not available.
Flu Activity Not available.
METAR KEWK 281815Z AUTO 20019G24KT 10SM CLR 13/M01 A2987 RMK AO1

More Conditions Fewer Conditions

Pressure 29.87 in
Visibility 10.0 miles
Clouds Clear
Dew Point 30 °F
Humidity 38%
Rainfall 0.00 in
Snow Depth Not available.
UV 3 out of 12
Pollen .10 out of 12
Air Quality Not available.
Flu Activity Not available.
METAR KEWK 281815Z AUTO 20019G24KT 10SM CLR 13/M01 A2987 RMK AO1

More Conditions Fewer Conditions

10-Day Weather Forecast

Almanac

Astronomy

Nov. 28, 2014 Rise Set
Actual Time
Civil Twilight
Nautical Twilight
Astronomical Twilight
Moon
Length of Visible Light
Length of Day
Tomorrow will be .
, % of the Moon is Illuminated

Today's Extremes

State Highs State Lows

Community

WunderPhotos

Upload Photos

1,774,251 photos uploaded!

WunderBlogs® & News

Nearby

Air Quality

  Air Quality AQ Index Pollutant
Not available.

Snow Depth

Station Depth Elevation

Earthquake Activity

City Distance Mag. Time & Date
Minimum magnitude displayed is 2.5.

Coastal Water Temperatures

Place Temperature

Nearby Weather Stations